Abbey Dell, Indiana
Current Conditions -  °F | °C
As of 2:15 PM on Tuesday 21 Oct 2014 (Local Time) from KDCY Reporting Station
Broken Clouds Broken Clouds  
Wind Chill: 62°   Ceiling: 4700
Heat Index: 62°   Visibility: 10mi
Dew Point: 42°   Wind: 12mph
Humidity: 48%   Direction: 360°N
Pressure: 30.08"   Gusts: 17mph
Location:  38.6165°N, 86.6265°W
Report Text: KDCY 211815Z AUTO 36010G15KT 10SM BKN047 17/06 A3008 RMK AO2 T01660056
Loading
Personal Weather Stations






























Interactive Weather Map New forecast layout! Learn more

10-Day Weather Forecast

Advertisements
Track Severe Weather on mobile